createdAt,value
2022-12-08T00:00:08.784Z,0.40
2022-12-08T00:02:35.496Z,0.30
2022-12-08T00:05:20.738Z,0.30
2022-12-08T00:08:06.281Z,0.30
2022-12-08T00:10:49.074Z,0.30
2022-12-08T00:13:16.186Z,0.30
2022-12-08T00:15:42.881Z,0.20
2022-12-08T00:18:09.558Z,0.20
2022-12-08T00:20:36.224Z,0.20
2022-12-08T00:23:04.259Z,0.20
2022-12-08T00:25:32.228Z,0.20
2022-12-08T00:27:58.870Z,0.20
2022-12-08T00:30:25.572Z,0.10
2022-12-08T00:32:52.179Z,0.20
2022-12-08T00:35:18.785Z,0.20
2022-12-08T00:37:46.485Z,0.20
2022-12-08T00:40:13.182Z,0.20
2022-12-08T00:42:39.831Z,0.30
2022-12-08T00:45:06.981Z,0.30
2022-12-08T00:47:33.588Z,0.30
2022-12-08T00:50:00.261Z,0.30
2022-12-08T00:52:26.995Z,0.30
2022-12-08T00:54:53.626Z,0.40
2022-12-08T00:57:20.289Z,0.40
2022-12-08T00:59:46.929Z,0.40
2022-12-08T01:02:13.544Z,0.40
2022-12-08T01:04:40.276Z,0.40
2022-12-08T01:07:07.012Z,0.50
2022-12-08T01:09:33.801Z,0.40
2022-12-08T01:12:00.511Z,0.50
2022-12-08T01:14:27.321Z,0.50
2022-12-08T01:16:54.117Z,0.50
2022-12-08T01:19:20.853Z,0.50
2022-12-08T01:21:47.754Z,0.50
2022-12-08T01:24:18.646Z,0.50
2022-12-08T01:26:46.145Z,0.50
2022-12-08T01:29:13.388Z,0.50
2022-12-08T01:31:40.358Z,0.60
2022-12-08T01:34:08.415Z,0.60
2022-12-08T01:36:37.275Z,0.60
2022-12-08T01:39:08.947Z,0.60
2022-12-08T01:41:37.635Z,0.60
2022-12-08T01:44:24.179Z,0.60
2022-12-08T01:46:53.519Z,0.60
2022-12-08T01:49:28.257Z,0.70
2022-12-08T01:52:03.920Z,0.70
2022-12-08T01:54:36.730Z,0.80
2022-12-08T01:57:08.148Z,0.90
2022-12-08T01:59:39.408Z,0.90
2022-12-08T02:02:06.183Z,0.90
2022-12-08T02:04:32.810Z,0.90
2022-12-08T02:07:03.604Z,0.90
2022-12-08T02:09:33.836Z,0.90
2022-12-08T02:12:01.094Z,0.90
2022-12-08T02:14:28.033Z,0.90
2022-12-08T02:17:20.150Z,0.90
2022-12-08T02:20:15.763Z,0.90
2022-12-08T02:22:55.027Z,0.90
2022-12-08T02:25:40.495Z,1.00
2022-12-08T02:28:40.120Z,1.00
2022-12-08T02:31:43.638Z,1.00
2022-12-08T02:34:40.903Z,1.00
2022-12-08T02:37:15.684Z,0.90
2022-12-08T02:40:02.164Z,1.00
2022-12-08T02:42:35.199Z,1.00
2022-12-08T02:45:17.234Z,1.00
2022-12-08T02:47:44.858Z,0.90
2022-12-08T02:50:12.881Z,1.00
2022-12-08T02:52:45.035Z,1.00
2022-12-08T02:55:46.489Z,1.00
2022-12-08T02:58:37.417Z,1.00
2022-12-08T03:01:12.832Z,1.00
2022-12-08T03:03:56.707Z,1.00
2022-12-08T03:06:46.631Z,1.00
2022-12-08T03:09:22.621Z,1.00
2022-12-08T03:12:35.628Z,1.00
2022-12-08T03:15:07.987Z,1.00
2022-12-08T03:17:36.449Z,1.00
2022-12-08T03:20:06.717Z,1.00
2022-12-08T03:22:33.834Z,1.00
2022-12-08T03:25:00.843Z,1.00
2022-12-08T03:27:30.070Z,1.10
2022-12-08T03:30:00.357Z,1.10
2022-12-08T03:32:49.283Z,1.10
2022-12-08T03:35:19.811Z,1.10
2022-12-08T03:37:46.839Z,1.10
2022-12-08T03:40:17.104Z,1.20
2022-12-08T03:42:43.943Z,1.20
2022-12-08T03:45:11.004Z,1.20
2022-12-08T03:47:37.993Z,1.20
2022-12-08T03:50:05.542Z,1.20
2022-12-08T03:52:32.251Z,1.20
2022-12-08T03:54:58.937Z,1.20
2022-12-08T03:57:25.548Z,1.30
2022-12-08T03:59:52.173Z,1.30
2022-12-08T04:02:18.800Z,1.20
2022-12-08T04:04:45.555Z,1.30
2022-12-08T04:07:12.188Z,1.30
2022-12-08T04:09:39.004Z,1.30
2022-12-08T04:12:05.911Z,1.30
2022-12-08T04:14:32.485Z,1.30
2022-12-08T04:16:59.172Z,1.30
2022-12-08T04:19:25.840Z,1.30
2022-12-08T04:21:52.538Z,1.30
2022-12-08T04:24:19.229Z,1.30
2022-12-08T04:26:46.023Z,1.30
2022-12-08T04:29:12.695Z,1.30
2022-12-08T04:31:39.352Z,1.30
2022-12-08T04:34:05.971Z,1.30
2022-12-08T04:36:32.762Z,1.40
2022-12-08T04:38:59.808Z,1.30
2022-12-08T04:41:26.549Z,1.30
2022-12-08T04:43:53.269Z,1.30
2022-12-08T04:46:19.948Z,1.30
2022-12-08T04:48:46.653Z,1.30
2022-12-08T04:51:20.241Z,1.30
2022-12-08T04:53:47.332Z,1.30
2022-12-08T04:56:16.521Z,1.20
2022-12-08T04:58:43.498Z,1.30
2022-12-08T05:01:10.600Z,1.30
2022-12-08T05:03:37.466Z,1.30
2022-12-08T05:06:04.329Z,1.30
2022-12-08T05:08:31.310Z,1.30
2022-12-08T05:11:05.830Z,1.30
2022-12-08T05:13:32.661Z,1.30
2022-12-08T05:16:10.972Z,1.40
2022-12-08T05:18:38.671Z,1.40
2022-12-08T05:21:06.660Z,1.40
2022-12-08T05:23:33.856Z,1.40
2022-12-08T05:26:01.063Z,1.40
2022-12-08T05:28:44.206Z,1.40
2022-12-08T05:31:12.508Z,1.40
2022-12-08T05:33:39.681Z,1.40
2022-12-08T05:36:06.821Z,1.40
2022-12-08T05:38:33.481Z,1.40
2022-12-08T05:41:00.133Z,1.40
2022-12-08T05:43:27.476Z,1.40
2022-12-08T05:45:54.087Z,1.40
2022-12-08T05:48:20.770Z,1.40
2022-12-08T05:50:48.672Z,1.50
2022-12-08T05:53:16.284Z,1.50
2022-12-08T05:55:42.997Z,1.50
2022-12-08T05:58:14.044Z,1.50
2022-12-08T06:00:41.629Z,1.50
2022-12-08T06:03:10.898Z,1.50
2022-12-08T06:05:37.783Z,1.50
2022-12-08T06:08:04.746Z,1.50
2022-12-08T06:10:31.484Z,1.50
2022-12-08T06:12:58.113Z,1.50
2022-12-08T06:15:24.764Z,1.50
2022-12-08T06:17:51.436Z,1.50
2022-12-08T06:20:18.262Z,1.60
2022-12-08T06:22:44.872Z,1.60
2022-12-08T06:25:11.494Z,1.60
2022-12-08T06:27:38.209Z,1.70
2022-12-08T06:30:05.681Z,1.60
2022-12-08T06:32:32.611Z,1.70
2022-12-08T06:34:59.305Z,1.70
2022-12-08T06:37:25.984Z,1.70
2022-12-08T06:39:52.581Z,1.70
2022-12-08T06:42:37.751Z,1.80
2022-12-08T06:45:04.755Z,1.80
2022-12-08T06:47:31.441Z,1.80
2022-12-08T06:49:58.240Z,1.80
2022-12-08T06:52:25.066Z,1.80
2022-12-08T06:54:51.775Z,1.80
2022-12-08T06:57:21.363Z,1.90
2022-12-08T06:59:47.947Z,1.80
2022-12-08T07:02:14.699Z,1.90
2022-12-08T07:04:41.365Z,1.80
2022-12-08T07:07:08.029Z,1.90
2022-12-08T07:09:34.826Z,1.90
2022-12-08T07:12:01.489Z,1.80
2022-12-08T07:14:28.200Z,1.90
2022-12-08T07:16:54.958Z,1.90
2022-12-08T07:19:21.796Z,2.00
2022-12-08T07:21:48.408Z,1.90
2022-12-08T07:24:15.038Z,1.90
2022-12-08T07:26:41.980Z,2.00
2022-12-08T07:29:10.821Z,1.90
2022-12-08T07:31:37.483Z,1.90
2022-12-08T07:34:04.434Z,1.90
2022-12-08T07:36:32.489Z,1.90
2022-12-08T07:38:59.289Z,1.90
2022-12-08T07:41:26.460Z,2.00
2022-12-08T07:43:53.837Z,1.90
2022-12-08T07:46:22.601Z,2.00
2022-12-08T07:48:49.362Z,2.00
2022-12-08T07:51:17.110Z,2.00
2022-12-08T07:53:51.586Z,2.00
2022-12-08T07:56:20.321Z,2.00
2022-12-08T07:58:47.159Z,2.00
2022-12-08T08:01:31.974Z,2.00
2022-12-08T08:04:07.369Z,2.10
2022-12-08T08:06:36.293Z,2.10
2022-12-08T08:09:03.101Z,2.10
2022-12-08T08:11:29.940Z,2.20
2022-12-08T08:13:57.307Z,2.20
2022-12-08T08:16:24.044Z,2.30
2022-12-08T08:18:51.227Z,2.30
2022-12-08T08:21:44.386Z,2.30
2022-12-08T08:24:06.364Z,2.40
2022-12-08T08:26:32.961Z,2.40
2022-12-08T08:28:59.604Z,2.40
2022-12-08T08:31:26.959Z,2.40
2022-12-08T08:33:54.360Z,2.40
2022-12-08T08:36:22.162Z,2.50
2022-12-08T08:38:48.788Z,2.40
2022-12-08T08:41:15.405Z,2.40
2022-12-08T08:43:42.048Z,2.40
2022-12-08T08:46:09.765Z,2.40
2022-12-08T08:48:36.512Z,2.50
2022-12-08T08:51:11.162Z,2.50
2022-12-08T08:53:38.348Z,2.60
2022-12-08T08:56:13.089Z,2.60
2022-12-08T08:58:39.986Z,2.60
2022-12-08T09:01:06.730Z,2.60
2022-12-08T09:03:33.979Z,2.70
2022-12-08T09:06:00.667Z,2.60
2022-12-08T09:08:27.374Z,2.60
2022-12-08T09:10:54.891Z,2.70
2022-12-08T09:13:22.440Z,2.70
2022-12-08T09:15:49.381Z,2.70
2022-12-08T09:18:16.201Z,2.80
2022-12-08T09:20:42.910Z,2.80
2022-12-08T09:23:09.635Z,2.80
2022-12-08T09:25:37.188Z,2.90
2022-12-08T09:28:03.897Z,3.00
2022-12-08T09:30:30.551Z,3.10
2022-12-08T09:32:57.326Z,3.10
2022-12-08T09:35:24.049Z,3.20
2022-12-08T09:37:50.789Z,3.20
2022-12-08T09:40:19.938Z,3.30
2022-12-08T09:43:17.710Z,3.30
2022-12-08T09:45:45.136Z,3.40
2022-12-08T09:48:23.382Z,3.40
2022-12-08T09:50:56.441Z,3.50
2022-12-08T09:53:29.438Z,3.50
2022-12-08T09:56:22.568Z,3.60
2022-12-08T09:59:01.483Z,3.60
2022-12-08T10:01:31.967Z,3.60
2022-12-08T10:03:59.526Z,3.60
2022-12-08T10:06:43.738Z,3.60
2022-12-08T10:09:28.353Z,3.60
2022-12-08T10:12:06.166Z,3.60
2022-12-08T10:15:03.965Z,3.70
2022-12-08T10:17:37.943Z,3.70
2022-12-08T10:20:26.790Z,3.70
2022-12-08T10:23:09.033Z,3.70
2022-12-08T10:25:44.602Z,3.80
2022-12-08T10:28:11.859Z,3.80
2022-12-08T10:30:38.487Z,3.80
2022-12-08T10:33:05.657Z,3.90
2022-12-08T10:36:04.754Z,3.90
2022-12-08T10:38:40.973Z,4.00
2022-12-08T10:41:10.501Z,4.00
2022-12-08T10:43:42.858Z,4.00
2022-12-08T10:46:25.856Z,4.10
2022-12-08T10:48:54.058Z,4.10
2022-12-08T10:51:39.840Z,4.10
2022-12-08T10:54:34.606Z,4.10
2022-12-08T10:57:01.564Z,4.20
2022-12-08T10:59:29.222Z,4.20
2022-12-08T11:01:57.084Z,4.20
2022-12-08T11:04:30.321Z,4.20
2022-12-08T11:06:57.237Z,4.20
2022-12-08T11:09:32.790Z,4.20
2022-12-08T11:12:06.844Z,4.20
2022-12-08T11:14:42.390Z,4.20
2022-12-08T11:17:18.099Z,4.10
2022-12-08T11:19:54.753Z,4.10
2022-12-08T11:22:45.765Z,4.10
2022-12-08T11:25:24.892Z,4.10
2022-12-08T11:27:57.745Z,4.10
2022-12-08T11:30:36.822Z,4.00
2022-12-08T11:33:14.612Z,4.00
2022-12-08T11:35:45.081Z,4.00
2022-12-08T11:38:21.484Z,4.00
2022-12-08T11:40:52.836Z,4.00
2022-12-08T11:43:29.153Z,4.00
2022-12-08T11:46:04.921Z,3.90
2022-12-08T11:48:47.137Z,4.00
2022-12-08T11:51:30.608Z,4.10
2022-12-08T11:54:11.085Z,4.00
2022-12-08T11:56:44.633Z,4.00
2022-12-08T11:59:22.116Z,4.00
2022-12-08T12:01:48.815Z,4.00
2022-12-08T12:04:22.494Z,4.00
2022-12-08T12:07:14.745Z,4.00
2022-12-08T12:09:51.563Z,4.00
2022-12-08T12:12:26.804Z,4.00
2022-12-08T12:15:24.825Z,4.00
2022-12-08T12:17:54.519Z,4.00
2022-12-08T12:20:26.880Z,3.90
2022-12-08T12:23:19.457Z,3.90
2022-12-08T12:26:19.850Z,3.90
2022-12-08T12:28:52.676Z,3.90
2022-12-08T12:31:25.254Z,3.90
2022-12-08T12:33:55.406Z,3.80
2022-12-08T12:36:23.057Z,3.80
2022-12-08T12:39:01.500Z,3.80
2022-12-08T12:41:41.991Z,3.80
2022-12-08T12:44:13.313Z,3.80
2022-12-08T12:46:53.468Z,3.80
2022-12-08T12:49:49.915Z,3.70
2022-12-08T12:52:16.586Z,3.70
2022-12-08T12:54:49.533Z,3.60
2022-12-08T12:57:23.175Z,3.50
2022-12-08T13:00:17.331Z,3.50
2022-12-08T13:02:49.188Z,3.50
2022-12-08T13:05:31.754Z,3.40
2022-12-08T13:08:06.595Z,3.50
2022-12-08T13:10:39.565Z,3.50
2022-12-08T13:13:18.062Z,3.50
2022-12-08T13:16:19.628Z,3.50
2022-12-08T13:18:50.978Z,3.40
2022-12-08T13:21:21.311Z,3.40
2022-12-08T13:24:09.857Z,3.40
2022-12-08T13:26:51.418Z,3.40
2022-12-08T13:29:22.853Z,3.40
2022-12-08T13:31:56.284Z,3.40
2022-12-08T13:34:48.597Z,3.40
2022-12-08T13:37:28.484Z,3.40
2022-12-08T13:40:09.254Z,3.40
2022-12-08T13:43:01.950Z,3.40
2022-12-08T13:46:18.346Z,3.40
2022-12-08T13:57:29.494Z,3.40
2022-12-08T14:00:01.999Z,3.40
2022-12-08T14:02:39.528Z,3.40
2022-12-08T14:05:18.060Z,3.40
2022-12-08T14:07:48.346Z,3.40
2022-12-08T14:10:22.421Z,3.40
2022-12-08T14:12:56.310Z,3.40
2022-12-08T14:15:25.414Z,3.40
2022-12-08T14:17:56.111Z,3.40
2022-12-08T14:20:29.515Z,3.50
2022-12-08T14:22:56.845Z,3.50
2022-12-08T14:25:25.630Z,3.50
2022-12-08T14:27:58.968Z,3.50
2022-12-08T14:30:31.189Z,3.50
2022-12-08T14:32:59.859Z,3.50
2022-12-08T14:35:35.453Z,3.50
2022-12-08T14:38:05.293Z,3.50
2022-12-08T14:40:40.655Z,3.50
2022-12-08T14:43:10.446Z,3.50
2022-12-08T14:45:43.279Z,3.50
2022-12-08T14:48:28.266Z,3.50
2022-12-08T14:50:59.791Z,3.50
2022-12-08T14:53:28.950Z,3.50
2022-12-08T14:55:55.580Z,3.50
2022-12-08T14:58:29.923Z,3.50
2022-12-08T15:00:58.618Z,3.50
2022-12-08T15:03:28.135Z,3.50
2022-12-08T15:06:06.574Z,3.50
2022-12-08T15:08:34.495Z,3.50
2022-12-08T15:11:36.775Z,3.40
2022-12-08T15:14:04.241Z,3.10
2022-12-08T15:16:36.793Z,2.80
2022-12-08T15:19:24.412Z,2.60
2022-12-08T15:21:51.364Z,2.40
2022-12-08T15:24:19.580Z,2.30
2022-12-08T15:26:48.776Z,2.20
2022-12-08T15:29:22.963Z,2.20
2022-12-08T15:31:52.437Z,2.10
2022-12-08T15:34:20.584Z,2.10
2022-12-08T15:36:49.708Z,2.10
2022-12-08T15:39:36.955Z,2.10
2022-12-08T15:42:06.616Z,2.20
2022-12-08T15:44:33.324Z,2.10
2022-12-08T15:47:00.637Z,2.10
2022-12-08T15:49:27.469Z,2.20
2022-12-08T15:52:03.462Z,2.20
2022-12-08T15:54:37.172Z,2.20
2022-12-08T15:57:18.977Z,2.20
2022-12-08T15:59:47.124Z,2.20
2022-12-08T16:02:20.857Z,2.20
2022-12-08T16:07:38.284Z,2.20
2022-12-08T16:10:06.731Z,2.20
2022-12-08T16:16:00.692Z,2.30
2022-12-08T16:18:33.260Z,2.30
2022-12-08T16:21:17.879Z,2.30
2022-12-08T16:23:47.116Z,2.40
2022-12-08T16:27:28.569Z,2.40
2022-12-08T16:29:20.758Z,2.40
2022-12-08T16:31:47.884Z,2.40
2022-12-08T16:34:14.769Z,2.40
2022-12-08T16:36:41.418Z,2.40
2022-12-08T16:39:09.790Z,2.40
2022-12-08T16:41:55.100Z,2.40
2022-12-08T16:44:21.794Z,2.40
2022-12-08T16:46:48.382Z,2.40
2022-12-08T16:49:15.616Z,2.40
2022-12-08T16:51:43.213Z,2.30
2022-12-08T16:54:09.821Z,2.30
2022-12-08T16:56:36.595Z,2.30
2022-12-08T16:59:03.628Z,2.30
2022-12-08T17:01:31.421Z,2.30
2022-12-08T17:06:45.116Z,2.30
2022-12-08T17:09:11.764Z,2.30
2022-12-08T17:11:42.879Z,2.20
2022-12-08T17:14:10.785Z,2.20
2022-12-08T17:16:37.645Z,2.10
2022-12-08T17:19:04.297Z,2.10
2022-12-08T17:21:30.946Z,2.10
2022-12-08T17:23:57.663Z,2.00
2022-12-08T17:26:24.402Z,2.00
2022-12-08T17:29:00.376Z,1.90
2022-12-08T17:31:30.324Z,1.90
2022-12-08T17:34:10.119Z,1.80
2022-12-08T17:36:37.171Z,1.80
2022-12-08T17:39:04.604Z,1.80
2022-12-08T17:41:32.941Z,1.80
2022-12-08T17:43:59.532Z,1.90
2022-12-08T17:46:26.511Z,1.90
2022-12-08T17:48:53.875Z,1.90
2022-12-08T17:51:20.678Z,1.90
2022-12-08T17:53:47.370Z,1.80
2022-12-08T17:56:17.173Z,1.80
2022-12-08T17:58:44.877Z,1.80
2022-12-08T18:01:12.378Z,1.80
2022-12-08T18:03:39.219Z,1.80
2022-12-08T18:06:11.305Z,1.70
2022-12-08T18:08:38.874Z,1.70
2022-12-08T18:11:11.315Z,1.70
2022-12-08T18:13:38.087Z,1.70
2022-12-08T18:16:04.921Z,1.60
2022-12-08T18:18:31.613Z,1.60
2022-12-08T18:20:58.207Z,1.60
2022-12-08T18:23:24.805Z,1.50
2022-12-08T18:25:51.445Z,1.50
2022-12-08T18:28:18.115Z,1.40
2022-12-08T18:30:44.891Z,1.40
2022-12-08T18:33:11.536Z,1.40
2022-12-08T18:35:40.185Z,1.30
2022-12-08T18:38:07.719Z,1.30
2022-12-08T18:40:34.553Z,1.30
2022-12-08T18:43:01.207Z,1.20
2022-12-08T18:45:27.791Z,1.20
2022-12-08T18:47:54.797Z,1.20
2022-12-08T18:50:21.517Z,1.20
2022-12-08T18:52:48.386Z,1.20
2022-12-08T18:55:15.469Z,1.10
2022-12-08T18:57:43.177Z,1.00
2022-12-08T19:00:14.391Z,1.00
2022-12-08T19:02:41.779Z,1.00
2022-12-08T19:05:10.778Z,0.90
2022-12-08T19:07:37.991Z,0.90
2022-12-08T19:10:06.269Z,0.90
2022-12-08T19:12:33.145Z,0.90
2022-12-08T19:14:59.981Z,0.80
2022-12-08T19:17:26.835Z,0.80
2022-12-08T19:19:53.642Z,0.80
2022-12-08T19:22:20.276Z,0.80
2022-12-08T19:24:46.866Z,0.70
2022-12-08T19:27:13.531Z,0.70
2022-12-08T19:29:40.178Z,0.60
2022-12-08T19:32:06.796Z,0.60
2022-12-08T19:34:33.639Z,0.60
2022-12-08T19:37:00.233Z,0.50
2022-12-08T19:39:45.463Z,0.50
2022-12-08T19:42:35.388Z,0.40
2022-12-08T19:45:14.433Z,0.40
2022-12-08T19:47:42.139Z,0.30
2022-12-08T19:50:29.269Z,0.30
2022-12-08T19:52:56.301Z,0.30
2022-12-08T19:55:24.895Z,0.30
2022-12-08T19:57:52.538Z,0.30
2022-12-08T20:00:20.297Z,0.30
2022-12-08T20:02:47.461Z,0.30
2022-12-08T20:05:14.795Z,0.40
2022-12-08T20:07:41.784Z,0.40
2022-12-08T20:10:18.453Z,0.50
2022-12-08T20:12:45.516Z,0.50
2022-12-08T20:15:12.230Z,0.50
2022-12-08T20:17:38.923Z,0.60
2022-12-08T20:20:07.768Z,0.60
2022-12-08T20:22:34.953Z,0.60
2022-12-08T20:25:02.722Z,0.60
2022-12-08T20:27:29.481Z,0.70
2022-12-08T20:29:56.193Z,0.60
2022-12-08T20:32:22.997Z,0.60
2022-12-08T20:34:49.755Z,0.60
2022-12-08T20:37:16.468Z,0.60
2022-12-08T20:39:43.172Z,0.60
2022-12-08T20:42:13.624Z,0.60
2022-12-08T20:44:44.481Z,0.50
2022-12-08T20:47:12.632Z,0.40
2022-12-08T20:49:39.437Z,0.40
2022-12-08T20:52:06.455Z,0.30
2022-12-08T20:54:33.770Z,0.30
2022-12-08T20:57:00.547Z,0.20
2022-12-08T20:59:27.722Z,0.20
2022-12-08T21:01:54.967Z,0.10
2022-12-08T21:04:22.693Z,0.10
2022-12-08T21:06:49.989Z,0.00
2022-12-08T21:09:17.203Z,0.00
2022-12-08T21:11:44.217Z,-0.10
2022-12-08T21:14:11.453Z,-0.10
2022-12-08T21:16:38.323Z,-0.10
2022-12-08T21:19:06.207Z,-0.20
2022-12-08T21:21:33.031Z,-0.20
2022-12-08T21:24:00.018Z,-0.20
2022-12-08T21:26:27.006Z,-0.20
2022-12-08T21:28:58.448Z,-0.20
2022-12-08T21:31:31.774Z,-0.20
2022-12-08T21:34:01.196Z,-0.30
2022-12-08T21:36:28.387Z,-0.30
2022-12-08T21:38:55.373Z,-0.30
2022-12-08T21:41:42.445Z,-0.30
2022-12-08T21:44:11.895Z,-0.30
2022-12-08T21:46:39.019Z,-0.30
2022-12-08T21:49:06.126Z,-0.30
2022-12-08T21:51:35.105Z,-0.30
2022-12-08T21:54:01.935Z,-0.30
2022-12-08T21:56:28.554Z,-0.30
2022-12-08T21:58:55.317Z,-0.40
2022-12-08T22:01:22.144Z,-0.30
2022-12-08T22:03:48.983Z,-0.30
2022-12-08T22:06:15.798Z,-0.40
2022-12-08T22:08:42.517Z,-0.40
2022-12-08T22:11:11.482Z,-0.40
2022-12-08T22:13:40.533Z,-0.40
2022-12-08T22:16:10.025Z,-0.40
2022-12-08T22:18:37.366Z,-0.40
2022-12-08T22:21:15.489Z,-0.40
2022-12-08T22:23:43.259Z,-0.30
2022-12-08T22:26:11.024Z,-0.40
2022-12-08T22:28:40.288Z,-0.30
2022-12-08T22:31:16.621Z,-0.30
2022-12-08T22:33:43.894Z,-0.40
2022-12-08T22:36:16.140Z,-0.40
2022-12-08T22:38:43.633Z,-0.40
2022-12-08T22:41:10.574Z,-0.40
2022-12-08T22:43:38.179Z,-0.40
2022-12-08T22:46:14.423Z,-0.40
2022-12-08T22:48:41.618Z,-0.40
2022-12-08T22:51:09.151Z,-0.50
2022-12-08T22:53:36.346Z,-0.50
2022-12-08T22:56:11.809Z,-0.50
2022-12-08T22:58:39.239Z,-0.50
2022-12-08T23:01:06.685Z,-0.60
2022-12-08T23:03:34.644Z,-0.60
2022-12-08T23:06:02.147Z,-0.60
2022-12-08T23:08:29.297Z,-0.60
2022-12-08T23:10:56.179Z,-0.60
2022-12-08T23:13:23.336Z,-0.70
2022-12-08T23:15:50.074Z,-0.70
2022-12-08T23:18:21.265Z,-0.70
2022-12-08T23:20:48.289Z,-0.80
2022-12-08T23:23:15.500Z,-0.80
2022-12-08T23:25:43.215Z,-0.80
2022-12-08T23:28:10.429Z,-0.90
2022-12-08T23:30:40.045Z,-0.90
2022-12-08T23:33:06.900Z,-0.90
2022-12-08T23:35:33.782Z,-1.00
2022-12-08T23:38:00.805Z,-1.00
2022-12-08T23:40:27.650Z,-1.00
2022-12-08T23:42:54.407Z,-1.10
2022-12-08T23:45:21.200Z,-1.10
2022-12-08T23:47:48.036Z,-1.20
2022-12-08T23:50:14.642Z,-1.20
2022-12-08T23:52:41.275Z,-1.20
2022-12-08T23:55:08.473Z,-1.30
2022-12-08T23:57:36.169Z,-1.30
